createdAt,value
2023-01-21T00:01:11.991Z,21.05
2023-01-21T00:03:39.634Z,19.17
2023-01-21T00:06:07.517Z,19.85
2023-01-21T00:08:36.786Z,20.27
2023-01-21T00:11:15.058Z,19.25
2023-01-21T00:13:43.638Z,18.42
2023-01-21T00:16:11.613Z,20.17
2023-01-21T00:18:39.073Z,20.35
2023-01-21T00:21:06.847Z,21.13
2023-01-21T00:23:34.088Z,19.75
2023-01-21T00:26:03.275Z,20.75
2023-01-21T00:28:32.294Z,18.90
2023-01-21T00:31:02.026Z,20.02
2023-01-21T00:33:30.181Z,21.83
2023-01-21T00:36:01.914Z,19.75
2023-01-21T00:38:29.583Z,19.58
2023-01-21T00:41:26.394Z,18.48
2023-01-21T00:43:53.761Z,20.30
2023-01-21T00:46:21.131Z,19.50
2023-01-21T00:48:49.749Z,21.20
2023-01-21T00:51:17.367Z,20.90
2023-01-21T00:53:44.759Z,21.83
2023-01-21T00:56:13.595Z,21.10
2023-01-21T00:58:43.491Z,21.50
2023-01-21T01:01:14.501Z,22.43
2023-01-21T01:03:42.509Z,22.88
2023-01-21T01:06:19.915Z,21.10
2023-01-21T01:08:49.580Z,20.77
2023-01-21T01:11:17.975Z,21.25
2023-01-21T01:13:45.289Z,21.73
2023-01-21T01:16:15.024Z,21.05
2023-01-21T01:18:43.262Z,22.37
2023-01-21T01:21:21.813Z,21.48
2023-01-21T01:23:52.196Z,20.90
2023-01-21T01:26:21.332Z,21.38
2023-01-21T01:28:49.016Z,20.17
2023-01-21T01:31:18.508Z,21.02
2023-01-21T01:33:46.443Z,20.40
2023-01-21T01:36:17.927Z,20.67
2023-01-21T01:38:45.680Z,21.20
2023-01-21T01:41:19.041Z,20.63
2023-01-21T01:44:05.287Z,20.20
2023-01-21T01:46:35.355Z,20.50
2023-01-21T01:49:15.616Z,20.70
2023-01-21T01:51:51.304Z,21.45
2023-01-21T01:54:28.093Z,20.80
2023-01-21T01:56:58.705Z,20.25
2023-01-21T01:59:26.876Z,20.35
2023-01-21T02:01:55.078Z,21.42
2023-01-21T02:04:26.342Z,19.70
2023-01-21T02:06:55.864Z,19.88
2023-01-21T02:09:29.670Z,19.90
2023-01-21T02:12:02.324Z,19.67
2023-01-21T02:14:31.478Z,19.95
2023-01-21T02:17:11.143Z,19.83
2023-01-21T02:19:47.056Z,19.35
2023-01-21T02:22:26.320Z,20.80
2023-01-21T02:25:16.732Z,19.33
2023-01-21T02:27:59.704Z,19.77
2023-01-21T02:30:52.815Z,18.83
2023-01-21T02:33:51.489Z,17.88
2023-01-21T02:36:30.877Z,19.77
2023-01-21T02:39:20.096Z,19.13
2023-01-21T02:41:57.968Z,19.77
2023-01-21T02:44:35.659Z,19.63
2023-01-21T02:47:16.432Z,19.25
2023-01-21T02:52:31.467Z,20.70
2023-01-21T02:55:01.600Z,20.15
2023-01-21T02:57:53.224Z,19.15
2023-01-21T03:00:31.016Z,19.33
2023-01-21T03:03:15.441Z,19.98
2023-01-21T03:05:53.771Z,19.05
2023-01-21T03:08:23.297Z,20.15
2023-01-21T03:11:00.090Z,19.38
2023-01-21T03:14:03.345Z,18.85
2023-01-21T03:16:54.370Z,19.88
2023-01-21T03:19:43.834Z,20.27
2023-01-21T03:22:17.411Z,20.42
2023-01-21T03:24:49.077Z,20.92
2023-01-21T03:27:20.116Z,20.33
2023-01-21T03:29:52.612Z,22.27
2023-01-21T03:32:22.226Z,20.60
2023-01-21T03:34:54.607Z,20.45
2023-01-21T03:37:52.998Z,20.45
2023-01-21T03:40:37.040Z,21.88
2023-01-21T03:43:04.637Z,21.02
2023-01-21T03:45:49.390Z,20.23
2023-01-21T03:48:26.271Z,19.45
2023-01-21T03:50:59.797Z,21.10
2023-01-21T03:53:27.639Z,20.77
2023-01-21T03:55:54.915Z,21.08
2023-01-21T03:58:22.240Z,22.63
2023-01-21T04:00:49.548Z,20.73
2023-01-21T04:03:17.132Z,21.83
2023-01-21T04:05:44.392Z,20.45
2023-01-21T04:08:11.664Z,21.60
2023-01-21T04:10:38.958Z,21.80
2023-01-21T04:13:07.692Z,21.88
2023-01-21T04:15:34.944Z,21.50
2023-01-21T04:18:02.212Z,19.92
2023-01-21T04:20:29.524Z,20.50
2023-01-21T04:22:56.792Z,20.23
2023-01-21T04:25:24.111Z,21.48
2023-01-21T04:27:51.383Z,21.70
2023-01-21T04:30:18.975Z,23.17
2023-01-21T04:32:46.596Z,23.60
2023-01-21T04:35:13.973Z,21.20
2023-01-21T04:37:41.266Z,21.15
2023-01-21T04:40:09.970Z,22.55
2023-01-21T04:42:37.258Z,21.98
2023-01-21T04:45:05.016Z,20.92
2023-01-21T04:47:33.581Z,22.33
2023-01-21T04:50:02.275Z,21.95
2023-01-21T04:52:30.444Z,21.83
2023-01-21T04:54:57.706Z,21.10
2023-01-21T04:57:25.000Z,24.02
2023-01-21T04:59:53.723Z,20.63
2023-01-21T05:02:21.175Z,21.30
2023-01-21T05:04:48.454Z,21.52
2023-01-21T05:07:16.023Z,20.67
2023-01-21T05:09:43.277Z,21.60
2023-01-21T05:12:10.612Z,22.23
2023-01-21T05:14:38.003Z,21.33
2023-01-21T05:17:05.233Z,20.92
2023-01-21T05:19:33.923Z,21.60
2023-01-21T05:22:01.345Z,20.52
2023-01-21T05:24:30.745Z,21.13
2023-01-21T05:26:58.012Z,21.35
2023-01-21T05:29:25.525Z,21.00
2023-01-21T05:31:52.762Z,20.80
2023-01-21T05:34:20.500Z,20.52
2023-01-21T05:36:47.786Z,20.35
2023-01-21T05:39:15.125Z,20.92
2023-01-21T05:41:42.434Z,20.27
2023-01-21T05:44:10.040Z,20.95
2023-01-21T05:46:37.275Z,20.63
2023-01-21T05:49:04.641Z,19.92
2023-01-21T05:51:32.244Z,20.73
2023-01-21T05:53:59.599Z,22.60
2023-01-21T05:56:28.194Z,20.55
2023-01-21T05:58:55.443Z,20.80
2023-01-21T06:01:22.804Z,20.23
2023-01-21T06:03:50.159Z,22.20
2023-01-21T06:06:17.554Z,21.40
2023-01-21T06:08:44.831Z,20.50
2023-01-21T06:11:12.159Z,20.50
2023-01-21T06:13:39.513Z,21.77
2023-01-21T06:16:07.240Z,21.48
2023-01-21T06:18:36.749Z,21.70
2023-01-21T06:21:04.400Z,21.65
2023-01-21T06:23:31.723Z,21.83
2023-01-21T06:26:00.869Z,22.40
2023-01-21T06:28:29.832Z,22.23
2023-01-21T06:30:57.360Z,21.90
2023-01-21T06:33:24.883Z,21.80
2023-01-21T06:35:52.478Z,20.88
2023-01-21T06:38:19.872Z,22.38
2023-01-21T06:40:47.236Z,23.38
2023-01-21T06:43:15.972Z,21.30
2023-01-21T06:45:43.357Z,22.05
2023-01-21T06:48:10.760Z,20.88
2023-01-21T06:50:41.296Z,22.75
2023-01-21T06:53:08.608Z,23.90
2023-01-21T06:55:35.923Z,22.00
2023-01-21T06:58:03.289Z,22.48
2023-01-21T07:00:33.720Z,22.27
2023-01-21T07:03:01.288Z,23.98
2023-01-21T07:05:28.621Z,24.45
2023-01-21T07:07:57.264Z,21.98
2023-01-21T07:10:25.696Z,23.77
2023-01-21T07:12:52.975Z,24.25
2023-01-21T07:15:20.354Z,23.40
2023-01-21T07:17:47.787Z,24.13
2023-01-21T07:20:15.310Z,24.58
2023-01-21T07:22:42.932Z,23.98
2023-01-21T07:25:10.347Z,27.00
2023-01-21T07:27:37.638Z,23.15
2023-01-21T07:30:06.530Z,24.20
2023-01-21T07:32:34.007Z,23.48
2023-01-21T07:35:01.405Z,23.20
2023-01-21T07:37:28.691Z,23.00
2023-01-21T07:39:56.563Z,22.83
2023-01-21T07:42:23.852Z,21.48
2023-01-21T07:44:51.433Z,21.77
2023-01-21T07:47:18.882Z,20.80
2023-01-21T07:49:49.379Z,22.33
2023-01-21T07:52:17.288Z,22.40
2023-01-21T07:54:44.513Z,21.95
2023-01-21T07:57:11.782Z,21.27
2023-01-21T07:59:39.292Z,25.35
2023-01-21T08:02:06.728Z,22.92
2023-01-21T08:04:34.047Z,21.42
2023-01-21T08:07:06.917Z,22.80
2023-01-21T08:09:34.134Z,22.92
2023-01-21T08:12:01.449Z,22.98
2023-01-21T08:14:29.079Z,23.17
2023-01-21T08:16:56.745Z,22.05
2023-01-21T08:19:24.108Z,23.08
2023-01-21T08:21:51.873Z,22.77
2023-01-21T08:24:19.200Z,22.05
2023-01-21T08:26:46.557Z,22.00
2023-01-21T08:29:13.812Z,24.17
2023-01-21T08:31:41.108Z,24.30
2023-01-21T08:34:10.493Z,22.60
2023-01-21T08:36:39.041Z,23.75
2023-01-21T08:39:06.963Z,22.92
2023-01-21T08:41:34.270Z,21.77
2023-01-21T08:44:01.584Z,23.30
2023-01-21T08:46:29.026Z,23.25
2023-01-21T08:48:56.659Z,22.20
2023-01-21T08:51:24.168Z,23.83
2023-01-21T08:53:54.020Z,24.95
2023-01-21T08:56:21.363Z,18.17
2023-01-21T08:58:48.728Z,24.55
2023-01-21T09:01:16.317Z,23.77
2023-01-21T09:03:43.624Z,24.58
2023-01-21T09:06:11.596Z,25.05
2023-01-21T09:08:39.539Z,24.92
2023-01-21T09:11:07.310Z,24.85
2023-01-21T09:13:37.900Z,25.73
2023-01-21T09:16:09.956Z,26.95
2023-01-21T09:18:38.340Z,25.70
2023-01-21T09:21:07.083Z,25.02
2023-01-21T09:23:35.818Z,26.92
2023-01-21T09:26:07.466Z,24.83
2023-01-21T09:28:37.429Z,26.92
2023-01-21T09:31:08.592Z,23.52
2023-01-21T09:33:41.477Z,24.48
2023-01-21T09:36:12.977Z,24.13
2023-01-21T09:38:45.000Z,25.92
2023-01-21T09:41:44.300Z,25.52
2023-01-21T09:44:20.585Z,27.23
2023-01-21T09:46:56.267Z,25.88
2023-01-21T09:49:33.487Z,25.98
2023-01-21T09:52:22.801Z,27.10
2023-01-21T09:54:50.528Z,33.25
2023-01-21T09:57:20.623Z,30.10
2023-01-21T09:59:57.727Z,29.38
2023-01-21T10:02:27.980Z,28.65
2023-01-21T10:05:24.379Z,27.63
2023-01-21T10:07:54.654Z,24.42
2023-01-21T10:10:54.847Z,24.40
2023-01-21T10:13:37.475Z,20.88
2023-01-21T10:16:25.156Z,17.60
2023-01-21T10:18:53.918Z,14.18
2023-01-21T10:21:36.994Z,12.07
2023-01-21T10:24:17.004Z,12.63
2023-01-21T10:26:47.927Z,12.40
2023-01-21T10:29:22.872Z,11.95
2023-01-21T10:31:59.542Z,11.63
2023-01-21T10:34:39.899Z,11.50
2023-01-21T10:37:15.254Z,11.10
2023-01-21T10:40:14.187Z,10.88
2023-01-21T10:43:03.658Z,11.77
2023-01-21T10:45:45.336Z,11.20
2023-01-21T10:48:32.557Z,10.32
2023-01-21T10:51:19.230Z,10.15
2023-01-21T10:54:07.497Z,10.43
2023-01-21T10:56:48.684Z,10.38
2023-01-21T10:59:23.005Z,9.90
2023-01-21T11:02:03.808Z,10.25
2023-01-21T11:07:07.904Z,9.68
2023-01-21T11:09:38.952Z,9.65
2023-01-21T11:12:10.462Z,8.95
2023-01-21T11:14:37.828Z,8.70
2023-01-21T11:17:05.819Z,8.82
2023-01-21T11:19:33.443Z,9.10
2023-01-21T11:22:06.895Z,8.75
2023-01-21T11:24:49.411Z,8.45
2023-01-21T11:27:19.791Z,8.57
2023-01-21T11:29:49.921Z,8.02
2023-01-21T11:32:24.138Z,8.25
2023-01-21T11:35:01.865Z,8.23
2023-01-21T11:37:31.523Z,8.52
2023-01-21T11:40:07.302Z,8.13
2023-01-21T11:42:47.360Z,8.50
2023-01-21T11:45:32.852Z,7.35
2023-01-21T11:48:01.332Z,7.80
2023-01-21T11:50:29.815Z,7.03
2023-01-21T11:53:10.161Z,7.03
2023-01-21T11:55:55.233Z,6.40
2023-01-21T11:58:22.492Z,7.15
2023-01-21T12:00:53.050Z,6.82
2023-01-21T12:03:24.801Z,6.90
2023-01-21T12:05:53.686Z,6.32
2023-01-21T12:08:28.115Z,6.72
2023-01-21T12:10:57.839Z,6.72
2023-01-21T12:13:31.857Z,7.38
2023-01-21T12:16:23.931Z,5.90
2023-01-21T12:18:57.456Z,6.30
2023-01-21T12:21:43.121Z,5.88
2023-01-21T12:24:19.143Z,5.63
2023-01-21T12:27:02.502Z,5.32
2023-01-21T12:29:54.941Z,5.78
2023-01-21T12:32:37.858Z,4.93
2023-01-21T12:35:30.336Z,4.35
2023-01-21T12:38:06.914Z,4.32
2023-01-21T12:40:41.040Z,3.38
2023-01-21T12:43:37.255Z,2.50
2023-01-21T12:46:24.847Z,2.55
2023-01-21T12:49:15.532Z,2.30
2023-01-21T12:51:46.702Z,2.30
2023-01-21T12:54:42.111Z,1.85
2023-01-21T12:57:22.075Z,2.30
2023-01-21T12:59:55.704Z,1.70
2023-01-21T13:02:33.469Z,2.25
2023-01-21T13:05:15.476Z,2.05
2023-01-21T13:08:20.593Z,2.30
2023-01-21T13:10:54.995Z,2.42
2023-01-21T13:13:30.803Z,2.83
2023-01-21T13:16:05.284Z,2.97
2023-01-21T13:18:43.676Z,2.60
2023-01-21T13:21:47.996Z,2.92
2023-01-21T13:24:46.600Z,2.72
2023-01-21T13:27:21.793Z,2.90
2023-01-21T13:29:54.950Z,2.70
2023-01-21T13:32:36.492Z,3.10
2023-01-21T13:35:25.964Z,2.72
2023-01-21T13:38:16.780Z,3.38
2023-01-21T13:43:41.459Z,2.85
2023-01-21T13:46:39.337Z,2.70
2023-01-21T13:49:22.384Z,3.55
2023-01-21T13:52:07.529Z,3.30
2023-01-21T13:54:53.211Z,3.50
2023-01-21T13:57:37.839Z,3.58
2023-01-21T14:00:24.587Z,3.53
2023-01-21T14:03:04.317Z,3.63
2023-01-21T14:05:46.929Z,4.40
2023-01-21T14:08:23.819Z,4.70
2023-01-21T14:11:07.010Z,4.20
2023-01-21T14:13:55.933Z,5.28
2023-01-21T14:16:31.157Z,4.47
2023-01-21T14:19:16.983Z,4.60
2023-01-21T14:21:54.014Z,5.13
2023-01-21T14:24:53.914Z,5.43
2023-01-21T14:27:27.380Z,5.43
2023-01-21T14:30:21.026Z,5.03
2023-01-21T14:32:57.592Z,4.97
2023-01-21T14:35:41.872Z,5.03
2023-01-21T14:38:44.677Z,4.63
2023-01-21T14:41:12.720Z,4.57
2023-01-21T14:43:44.453Z,4.88
2023-01-21T14:46:33.703Z,4.93
2023-01-21T14:49:12.284Z,4.95
2023-01-21T14:51:51.918Z,4.55
2023-01-21T14:54:26.703Z,4.78
2023-01-21T14:57:01.745Z,4.82
2023-01-21T14:59:33.655Z,4.00
2023-01-21T15:02:04.986Z,4.93
2023-01-21T15:04:40.587Z,4.35
2023-01-21T15:07:18.191Z,4.60
2023-01-21T15:09:52.411Z,5.15
2023-01-21T15:12:28.606Z,5.32
2023-01-21T15:14:59.594Z,4.82
2023-01-21T15:17:54.790Z,5.10
2023-01-21T15:21:00.993Z,5.28
2023-01-21T15:23:31.677Z,4.53
2023-01-21T15:26:05.281Z,4.85
2023-01-21T15:28:44.896Z,4.80
2023-01-21T15:31:21.736Z,3.97
2023-01-21T15:33:52.157Z,3.92
2023-01-21T15:36:29.533Z,4.20
2023-01-21T15:39:02.736Z,4.20
2023-01-21T15:41:36.078Z,4.90
2023-01-21T15:44:12.425Z,4.68
2023-01-21T15:46:58.088Z,7.57
2023-01-21T15:49:25.498Z,18.77
2023-01-21T15:52:13.643Z,11.57
2023-01-21T15:55:21.466Z,14.60
2023-01-21T15:58:21.881Z,10.65
2023-01-21T16:01:27.022Z,6.68
2023-01-21T16:04:23.714Z,6.18
2023-01-21T16:07:14.774Z,5.60
2023-01-21T16:09:48.017Z,6.72
2023-01-21T16:12:33.448Z,7.18
2023-01-21T16:15:27.123Z,5.97
2023-01-21T16:18:11.356Z,6.97
2023-01-21T16:20:48.392Z,7.68
2023-01-21T16:23:19.276Z,9.52
2023-01-21T16:25:48.714Z,8.95
2023-01-21T16:28:17.167Z,8.60
2023-01-21T16:30:56.647Z,7.68
2023-01-21T16:33:24.514Z,8.00
2023-01-21T16:35:57.340Z,8.20
2023-01-21T16:38:27.626Z,8.48
2023-01-21T16:41:07.256Z,9.32
2023-01-21T16:43:37.512Z,8.50
2023-01-21T16:46:11.976Z,9.10
2023-01-21T16:48:39.905Z,8.90
2023-01-21T16:51:18.558Z,9.85
2023-01-21T16:53:46.017Z,10.40
2023-01-21T16:56:30.390Z,10.57
2023-01-21T16:58:57.661Z,10.25
2023-01-21T17:01:30.318Z,9.98
2023-01-21T17:04:01.225Z,10.45
2023-01-21T17:06:33.208Z,10.70
2023-01-21T17:09:07.519Z,10.43
2023-01-21T17:11:38.608Z,10.15
2023-01-21T17:14:10.374Z,9.63
2023-01-21T17:16:40.753Z,10.70
2023-01-21T17:19:22.406Z,10.50
2023-01-21T17:21:55.596Z,10.43
2023-01-21T17:24:28.039Z,11.65
2023-01-21T17:27:09.959Z,12.70
2023-01-21T17:29:39.006Z,12.00
2023-01-21T17:32:31.766Z,11.77
2023-01-21T17:35:18.094Z,12.38
2023-01-21T17:38:04.097Z,12.65
2023-01-21T17:40:32.773Z,12.35
2023-01-21T17:43:10.338Z,12.00
2023-01-21T17:45:42.860Z,12.02
2023-01-21T17:48:24.433Z,11.60
2023-01-21T17:50:55.292Z,12.85
2023-01-21T17:53:28.775Z,11.65
2023-01-21T17:56:05.373Z,12.32
2023-01-21T17:58:52.540Z,13.65
2023-01-21T18:01:21.112Z,12.77
2023-01-21T18:03:48.675Z,13.75
2023-01-21T18:06:24.982Z,14.13
2023-01-21T18:08:54.113Z,12.82
2023-01-21T18:11:22.722Z,13.25
2023-01-21T18:13:50.383Z,13.32
2023-01-21T18:16:18.125Z,13.52
2023-01-21T18:18:45.514Z,12.55
2023-01-21T18:21:21.198Z,12.55
2023-01-21T18:23:49.664Z,13.02
2023-01-21T18:26:34.255Z,12.88
2023-01-21T18:29:02.010Z,14.32
2023-01-21T18:31:29.662Z,13.48
2023-01-21T18:33:57.256Z,13.68
2023-01-21T18:36:24.583Z,17.58
2023-01-21T18:38:51.865Z,17.98
2023-01-21T18:41:19.263Z,14.27
2023-01-21T18:43:46.530Z,15.00
2023-01-21T18:46:16.209Z,15.07
2023-01-21T18:48:43.713Z,15.03
2023-01-21T18:51:13.088Z,13.23
2023-01-21T18:53:41.508Z,13.00
2023-01-21T18:56:13.941Z,14.57
2023-01-21T18:58:41.443Z,13.57
2023-01-21T19:01:21.962Z,13.23
2023-01-21T19:03:53.954Z,13.32
2023-01-21T19:08:50.889Z,13.93
2023-01-21T19:11:18.272Z,15.23
2023-01-21T19:13:45.712Z,13.23
2023-01-21T19:16:16.242Z,13.75
2023-01-21T19:18:44.988Z,14.63
2023-01-21T19:21:14.811Z,14.45
2023-01-21T19:23:42.161Z,14.75
2023-01-21T19:26:13.760Z,16.10
2023-01-21T19:28:41.544Z,14.75
2023-01-21T19:31:09.001Z,15.45
2023-01-21T19:33:36.439Z,15.73
2023-01-21T19:36:10.380Z,14.82
2023-01-21T19:38:37.826Z,14.70
2023-01-21T19:41:05.590Z,14.48
2023-01-21T19:43:33.223Z,15.20
2023-01-21T19:46:00.613Z,15.98
2023-01-21T19:48:28.789Z,14.32
2023-01-21T19:50:56.098Z,13.07
2023-01-21T19:53:24.907Z,14.45
2023-01-21T19:55:52.287Z,13.82
2023-01-21T19:58:26.557Z,13.73
2023-01-21T20:00:54.474Z,14.95
2023-01-21T20:03:23.651Z,13.30
2023-01-21T20:05:59.349Z,13.00
2023-01-21T20:08:29.165Z,12.07
2023-01-21T20:10:56.895Z,10.40
2023-01-21T20:13:24.638Z,12.80
2023-01-21T20:15:52.601Z,13.23
2023-01-21T20:18:22.359Z,15.93
2023-01-21T20:20:49.797Z,13.73
2023-01-21T20:23:17.963Z,12.98
2023-01-21T20:25:48.410Z,12.60
2023-01-21T20:28:26.242Z,12.48
2023-01-21T20:30:54.669Z,10.48
2023-01-21T20:33:23.929Z,9.40
2023-01-21T20:35:54.443Z,8.25
2023-01-21T20:38:30.102Z,9.75
2023-01-21T20:40:58.405Z,8.13
2023-01-21T20:43:26.145Z,8.68
2023-01-21T20:45:57.485Z,6.35
2023-01-21T20:48:30.802Z,6.10
2023-01-21T20:50:58.402Z,5.95
2023-01-21T20:53:26.476Z,7.03
2023-01-21T20:55:58.738Z,5.57
2023-01-21T20:58:28.393Z,5.60
2023-01-21T21:00:56.063Z,5.07
2023-01-21T21:03:23.397Z,5.78
2023-01-21T21:05:50.732Z,5.72
2023-01-21T21:08:20.811Z,4.88
2023-01-21T21:10:50.966Z,5.30
2023-01-21T21:13:19.161Z,5.28
2023-01-21T21:15:47.809Z,6.00
2023-01-21T21:18:15.418Z,5.60
2023-01-21T21:20:42.826Z,4.88
2023-01-21T21:23:16.053Z,4.70
2023-01-21T21:25:47.990Z,4.82
2023-01-21T21:28:17.228Z,4.50
2023-01-21T21:30:45.260Z,5.00
2023-01-21T21:33:18.288Z,4.88
2023-01-21T21:35:47.018Z,5.07
2023-01-21T21:38:17.161Z,4.50
2023-01-21T21:40:48.424Z,4.15
2023-01-21T21:43:32.788Z,4.35
2023-01-21T21:46:29.057Z,4.15
2023-01-21T21:48:56.637Z,3.70
2023-01-21T21:51:24.176Z,3.90
2023-01-21T21:53:52.240Z,3.88
2023-01-21T21:56:21.634Z,3.53
2023-01-21T21:58:50.448Z,4.10
2023-01-21T22:01:30.483Z,4.25
2023-01-21T22:04:04.970Z,3.63
2023-01-21T22:06:33.742Z,4.40
2023-01-21T22:09:01.417Z,3.75
2023-01-21T22:11:29.458Z,3.58
2023-01-21T22:13:58.344Z,4.68
2023-01-21T22:16:28.138Z,4.82
2023-01-21T22:18:58.508Z,4.80
2023-01-21T22:21:29.053Z,4.30
2023-01-21T22:23:56.437Z,3.60
2023-01-21T22:26:26.139Z,5.00
2023-01-21T22:28:54.128Z,3.80
2023-01-21T22:31:30.458Z,4.55
2023-01-21T22:33:59.091Z,3.65
2023-01-21T22:36:28.582Z,3.30
2023-01-21T22:38:56.311Z,3.20
2023-01-21T22:41:25.204Z,3.70
2023-01-21T22:43:53.292Z,3.83
2023-01-21T22:46:25.255Z,4.43
2023-01-21T22:48:55.584Z,4.35
2023-01-21T22:51:23.770Z,4.00
2023-01-21T22:53:52.040Z,4.15
2023-01-21T22:56:25.427Z,4.70
2023-01-21T22:58:59.375Z,5.30
2023-01-21T23:01:32.714Z,6.10
2023-01-21T23:04:00.641Z,6.75
2023-01-21T23:06:28.563Z,6.95
2023-01-21T23:08:55.916Z,5.65
2023-01-21T23:11:23.195Z,6.25
2023-01-21T23:13:53.078Z,7.40
2023-01-21T23:16:23.703Z,8.50
2023-01-21T23:18:51.179Z,7.80
2023-01-21T23:21:21.400Z,7.53
2023-01-21T23:23:49.624Z,8.30
2023-01-21T23:26:20.169Z,8.75
2023-01-21T23:28:47.603Z,8.60
2023-01-21T23:31:17.657Z,8.90
2023-01-21T23:33:50.530Z,9.07
2023-01-21T23:36:18.338Z,9.93
2023-01-21T23:38:45.887Z,9.45
2023-01-21T23:41:16.930Z,9.82
2023-01-21T23:43:44.385Z,10.25
2023-01-21T23:46:16.634Z,11.40
2023-01-21T23:48:44.036Z,11.02
2023-01-21T23:51:13.915Z,10.40
2023-01-21T23:53:41.573Z,11.35
2023-01-21T23:56:22.215Z,11.07
2023-01-21T23:58:50.535Z,11.10
